Time;durP1;ratioP1;P1;durP2;ratioP2;P2;SDS_P1;SDS_P2;PMS_P1;PMS_P2;Temp;Humidity;BMP_temperature;BMP_pressure;BME280_temperature;BME280_humidity;BME280_pressure;Samples;Min_cycle;Max_cycle;Signal;HPM_P1;HPM_P2
2021/05/16 00:00:46;;;;;;;10.40;5.70;;;;;;;9.29;87.25;99699.14;1761582;80;21092;-79
2021/05/16 00:03:13;;;;;;;13.10;4.97;;;;;;;9.27;87.38;99702.75;1758294;81;21052;-78
2021/05/16 00:05:40;;;;;;;7.92;5.12;;;;;;;9.24;87.45;99707.66;1758702;81;21075;-81
2021/05/16 00:08:10;;;;;;;13.72;7.60;;;;;;;9.24;87.47;99711.61;1759824;81;21127;-89
2021/05/16 00:10:37;;;;;;;15.03;7.00;;;;;;;9.19;87.43;99706.98;1761366;81;21068;-86
2021/05/16 00:13:04;;;;;;;19.25;7.35;;;;;;;9.17;87.37;99707.04;1760292;81;21067;-86
2021/05/16 00:15:32;;;;;;;17.70;6.33;;;;;;;9.13;87.22;99704.59;1760901;81;21103;-88
2021/05/16 00:17:59;;;;;;;14.98;6.37;;;;;;;9.09;87.12;99706.48;1759409;81;21160;-81
2021/05/16 00:20:29;;;;;;;17.70;6.35;;;;;;;9.07;87.28;99710.94;1759080;81;21701;-82
2021/05/16 00:22:57;;;;;;;13.78;6.12;;;;;;;9.02;87.28;99701.92;1759226;81;21111;-82
2021/05/16 00:25:26;;;;;;;11.57;6.05;;;;;;;8.97;87.32;99707.81;1759067;81;21563;-82
2021/05/16 00:27:53;;;;;;;12.05;6.67;;;;;;;8.94;87.51;99713.16;1728991;81;21589;-82
2021/05/16 00:30:22;;;;;;;11.85;6.15;;;;;;;8.90;87.64;99706.30;1716451;83;21769;-83
2021/05/16 00:32:49;;;;;;;12.35;6.65;;;;;;;8.87;87.67;99701.16;1716675;83;21091;-84
2021/05/16 00:35:18;;;;;;;12.20;6.15;;;;;;;8.82;87.75;99697.86;1717366;83;21186;-83
2021/05/16 00:37:46;;;;;;;11.12;5.75;;;;;;;8.80;87.79;99703.63;1716803;83;21111;-84
2021/05/16 00:40:15;;;;;;;15.00;6.62;;;;;;;8.79;87.99;99697.98;1717144;82;21079;-84
2021/05/16 00:42:42;;;;;;;15.80;6.50;;;;;;;8.77;88.17;99698.03;1717067;83;21071;-82
2021/05/16 00:45:18;;;;;;;9.48;5.78;;;;;;;8.77;88.01;99697.18;1717735;83;21119;-82
2021/05/16 00:47:49;;;;;;;9.35;5.60;;;;;;;8.73;87.88;99699.05;1716608;83;21542;-80
2021/05/16 00:50:18;;;;;;;10.85;6.58;;;;;;;8.69;88.04;99701.84;1716352;83;21102;-80
2021/05/16 00:52:45;;;;;;;13.60;6.47;;;;;;;8.65;88.13;99694.98;1715356;83;21083;-79
2021/05/16 00:55:13;;;;;;;12.50;6.22;;;;;;;8.64;88.44;99703.31;1715551;83;21130;-79
2021/05/16 00:57:40;;;;;;;21.25;6.70;;;;;;;8.65;88.83;99708.98;1714413;83;21086;-78
2021/05/16 01:00:13;;;;;;;11.68;6.12;;;;;;;8.66;89.18;99705.90;1711169;83;21048;-82
2021/05/16 01:02:40;;;;;;;13.95;6.58;;;;;;;8.64;89.29;99707.72;1719790;83;21067;-80
2021/05/16 01:05:09;;;;;;;12.37;6.95;;;;;;;8.63;89.44;99709.92;1722317;82;21063;-81
2021/05/16 01:07:37;;;;;;;13.45;6.78;;;;;;;8.64;89.60;99715.59;1721098;83;21799;-82
2021/05/16 01:10:08;;;;;;;11.00;7.42;;;;;;;8.63;89.76;99717.37;1718974;83;21054;-80
2021/05/16 01:12:50;;;;;;;18.02;7.78;;;;;;;8.65;89.69;99710.73;1718909;83;21054;-82
2021/05/16 01:15:17;;;;;;;9.33;6.20;;;;;;;8.64;89.67;99709.03;1718137;83;21569;-83
2021/05/16 01:17:44;;;;;;;11.95;5.92;;;;;;;8.64;89.84;99709.03;1720259;82;21138;-85
2021/05/16 01:20:25;;;;;;;8.40;5.85;;;;;;;8.63;89.88;99705.98;1719531;80;21128;-76
2021/05/16 01:23:02;;;;;;;16.82;6.42;;;;;;;8.64;89.75;99711.66;1722860;83;25647;-76
2021/05/16 01:25:33;;;;;;;16.87;7.20;;;;;;;8.61;89.95;99709.53;1722630;83;21150;-77
2021/05/16 01:28:01;;;;;;;10.85;7.55;;;;;;;8.60;90.01;99716.14;1694498;83;21102;-74
2021/05/16 01:30:28;;;;;;;10.75;6.92;;;;;;;8.57;89.95;99711.86;1725481;83;21055;-78
2021/05/16 01:32:56;;;;;;;12.88;7.15;;;;;;;8.56;90.27;99713.25;1725158;83;21180;-77
2021/05/16 01:35:23;;;;;;;14.63;7.75;;;;;;;8.56;90.55;99718.50;1725382;83;21138;-77
2021/05/16 01:37:50;;;;;;;18.02;8.90;;;;;;;8.53;90.46;99722.52;1725663;83;21332;-78
2021/05/16 01:40:20;;;;;;;14.40;9.33;;;;;;;8.51;90.36;99716.03;1725420;83;21070;-79
2021/05/16 01:42:50;;;;;;;13.38;8.68;;;;;;;8.49;90.41;99724.41;1725579;83;21062;-79
2021/05/16 01:45:19;;;;;;;13.85;7.30;;;;;;;8.50;90.74;99729.20;1725168;83;21129;-79
2021/05/16 01:47:46;;;;;;;14.43;9.25;;;;;;;8.48;90.77;99731.87;1736193;80;21145;-77
2021/05/16 01:50:17;;;;;;;14.95;9.78;;;;;;;8.47;90.78;99740.66;1741041;82;21143;-76
2021/05/16 01:52:46;;;;;;;12.60;8.48;;;;;;;8.45;90.57;99736.38;1740706;82;21099;-75
2021/05/16 01:55:16;;;;;;;12.98;7.83;;;;;;;8.40;90.43;99737.86;1755342;80;21597;-75
2021/05/16 01:57:44;;;;;;;10.82;6.72;;;;;;;8.39;90.47;99741.34;1771615;80;21129;-75
2021/05/16 02:00:19;;;;;;;15.78;8.78;;;;;;;8.38;90.54;99740.95;1770767;80;21163;-75
2021/05/16 02:02:48;;;;;;;14.05;7.40;;;;;;;8.35;90.44;99742.34;1761327;81;21522;-75
2021/05/16 02:05:17;;;;;;;13.10;8.43;;;;;;;8.33;90.42;99740.25;1763558;81;21157;-76
2021/05/16 02:07:50;;;;;;;10.65;7.15;;;;;;;8.29;90.51;99738.64;1763873;81;21182;-78
2021/05/16 02:10:18;;;;;;;15.45;9.40;;;;;;;8.28;90.75;99741.72;1763938;81;21206;-79
2021/05/16 02:12:45;;;;;;;14.70;8.85;;;;;;;8.29;90.92;99749.98;1735597;81;21103;-76
2021/05/16 02:15:15;;;;;;;15.48;9.68;;;;;;;8.30;91.18;99753.45;1763680;81;21069;-78
2021/05/16 02:17:42;;;;;;;13.90;8.83;;;;;;;8.30;91.21;99751.69;1735687;81;21064;-78
2021/05/16 02:20:14;;;;;;;14.15;9.43;;;;;;;8.31;91.11;99756.50;1763873;81;21091;-76
2021/05/16 02:22:42;;;;;;;13.32;8.63;;;;;;;8.31;91.11;99752.56;1764014;81;21309;-75
2021/05/16 02:25:10;;;;;;;18.82;9.90;;;;;;;8.32;91.24;99759.52;1763758;81;21068;-75
2021/05/16 02:27:39;;;;;;;19.02;11.55;;;;;;;8.34;91.36;99759.01;1734441;81;21620;-76
2021/05/16 02:30:09;;;;;;;17.85;9.88;;;;;;;8.36;91.44;99753.26;1715251;83;21585;-76
2021/05/16 02:32:37;;;;;;;15.10;9.00;;;;;;;8.37;91.37;99749.71;1715498;83;21668;-81
2021/05/16 02:35:07;;;;;;;13.10;10.08;;;;;;;8.37;91.29;99758.89;1716673;83;21494;-81
2021/05/16 02:37:35;;;;;;;13.38;9.55;;;;;;;8.38;91.30;99758.00;1718586;83;21015;-84
2021/05/16 02:40:04;;;;;;;17.40;9.00;;;;;;;8.38;91.09;99764.10;1720918;83;21039;-82
2021/05/16 02:42:33;;;;;;;14.33;9.33;;;;;;;8.37;90.99;99761.09;1719995;83;21071;-81
2021/05/16 02:45:03;;;;;;;14.68;9.43;;;;;;;8.35;90.96;99760.71;1716907;83;21063;-82
2021/05/16 02:47:33;;;;;;;15.28;9.43;;;;;;;8.35;91.02;99768.58;1716470;83;21086;-83
2021/05/16 02:50:05;;;;;;;21.02;15.35;;;;;;;8.33;91.10;99760.78;1716440;82;21083;-82
2021/05/16 02:52:31;;;;;;;18.55;12.82;;;;;;;8.33;91.12;99766.49;1715673;83;21113;-83
2021/05/16 02:54:59;;;;;;;24.27;15.43;;;;;;;8.34;91.22;99759.01;1716419;83;21094;-85
2021/05/16 02:57:26;;;;;;;16.70;11.25;;;;;;;8.40;91.46;99764.09;1716563;83;21046;-85
2021/05/16 02:59:53;;;;;;;16.12;10.80;;;;;;;8.49;91.92;99766.41;1716425;83;21103;-83
2021/05/16 03:02:21;;;;;;;17.52;11.38;;;;;;;8.58;92.22;99770.02;1704063;81;21520;-85
2021/05/16 03:04:48;;;;;;;18.42;11.30;;;;;;;8.68;92.36;99763.14;1731795;82;21509;-83
2021/05/16 03:07:15;;;;;;;15.35;11.90;;;;;;;8.79;92.33;99768.88;1731497;82;21046;-83
2021/05/16 03:09:43;;;;;;;15.03;11.45;;;;;;;8.90;92.26;99771.95;1731609;82;21093;-84
2021/05/16 03:12:13;;;;;;;14.98;10.68;;;;;;;9.01;92.32;99775.05;1732073;81;21151;-84
2021/05/16 03:14:41;;;;;;;14.20;10.23;;;;;;;9.16;92.27;99780.68;1732051;82;21117;-83
2021/05/16 03:17:08;;;;;;;15.48;11.08;;;;;;;9.28;92.36;99782.84;1731781;82;21134;-85
2021/05/16 03:19:36;;;;;;;16.95;11.78;;;;;;;9.42;92.53;99781.86;1734682;81;20914;-86
2021/05/16 03:22:04;;;;;;;20.23;13.22;;;;;;;9.59;92.33;99782.55;1736656;81;21054;-84
2021/05/16 03:24:31;;;;;;;18.27;12.37;;;;;;;9.74;91.89;99781.09;1736760;81;21069;-83
2021/05/16 03:26:58;;;;;;;18.57;13.75;;;;;;;9.93;91.49;99776.41;1736447;81;20955;-83
2021/05/16 03:29:27;;;;;;;20.65;13.45;;;;;;;10.18;90.96;99780.23;1736372;79;20985;-85
2021/05/16 03:31:54;;;;;;;21.87;13.93;;;;;;;10.62;90.46;99776.22;1741497;81;21047;-84
2021/05/16 03:34:21;;;;;;;19.23;13.88;;;;;;;11.23;89.19;99771.36;1766577;81;21008;-82
2021/05/16 03:36:48;;;;;;;16.95;12.18;;;;;;;11.87;86.52;99776.30;1764951;81;21131;-84
2021/05/16 03:39:15;;;;;;;18.48;12.65;;;;;;;12.45;82.36;99777.00;1764133;81;21226;-82
2021/05/16 03:41:42;;;;;;;16.02;12.35;;;;;;;12.90;81.14;99778.20;1763593;81;21084;-79
2021/05/16 03:44:09;;;;;;;20.43;11.90;;;;;;;13.36;79.62;99777.11;1763992;81;21087;-81
2021/05/16 03:46:36;;;;;;;18.90;12.40;;;;;;;13.80;77.84;99788.36;1763929;81;21071;-78
2021/05/16 03:49:04;;;;;;;14.00;9.28;;;;;;;14.21;75.98;99787.82;1739916;81;21136;-80
2021/05/16 03:51:34;;;;;;;17.32;11.53;;;;;;;14.50;74.03;99789.27;1734999;82;21067;-85
2021/05/16 03:54:00;;;;;;;17.10;12.20;;;;;;;14.79;72.87;99783.12;1742310;81;21061;-83
2021/05/16 03:56:28;;;;;;;18.32;13.32;;;;;;;15.10;72.38;99783.43;1735247;82;21058;-85
2021/05/16 03:58:56;;;;;;;14.87;11.75;;;;;;;15.47;71.00;99794.41;1736478;81;21085;-85
2021/05/16 04:02:34;;;;;;;20.12;13.50;;;;;;;16.06;68.68;99791.59;1734218;79;22832;-81
2021/05/16 04:05:02;;;;;;;17.77;13.48;;;;;;;16.34;67.73;99791.10;1704313;82;21605;-83
2021/05/16 04:07:30;;;;;;;18.02;13.93;;;;;;;16.64;66.06;99787.34;1657472;86;21882;-85
2021/05/16 04:09:59;;;;;;;18.62;13.20;;;;;;;16.85;64.87;99775.27;1650734;85;21192;-86
2021/05/16 04:12:28;;;;;;;16.15;12.43;;;;;;;17.14;64.12;99780.39;1656742;86;21098;-83
2021/05/16 04:14:57;;;;;;;22.35;13.25;;;;;;;17.49;63.15;99783.22;1657237;85;21656;-86
2021/05/16 04:17:24;;;;;;;18.02;12.50;;;;;;;17.86;62.00;99776.61;1657388;86;21105;-85
2021/05/16 04:19:52;;;;;;;15.72;12.30;;;;;;;18.22;60.86;99781.05;1662457;85;21170;-84
2021/05/16 04:22:19;;;;;;;15.40;10.90;;;;;;;18.57;59.40;99784.20;1677662;84;21118;-85
2021/05/16 04:24:47;;;;;;;16.37;12.10;;;;;;;18.72;58.65;99791.51;1677993;84;21014;-85
2021/05/16 04:27:14;;;;;;;18.50;12.50;;;;;;;18.72;56.68;99791.51;1661578;84;21105;-84
2021/05/16 04:29:40;;;;;;;21.00;14.35;;;;;;;18.60;56.46;99775.96;1664127;85;21117;-85
2021/05/16 04:32:07;;;;;;;20.50;14.93;;;;;;;18.57;57.27;99790.88;1678567;84;21126;-85
2021/05/16 04:34:34;;;;;;;21.27;14.28;;;;;;;18.71;56.95;99788.98;1678101;84;21122;-86
2021/05/16 04:37:01;;;;;;;20.55;15.32;;;;;;;18.94;56.60;99786.75;1677783;84;21106;-83
2021/05/16 04:39:31;;;;;;;22.30;15.90;;;;;;;19.20;56.31;99780.70;1678720;84;21166;-85
2021/05/16 04:41:58;;;;;;;19.80;15.28;;;;;;;19.50;55.48;99777.92;1667234;85;21087;-84
2021/05/16 04:44:25;;;;;;;20.60;14.65;;;;;;;19.81;54.63;99772.34;1673425;85;21185;-71
2021/05/16 04:46:52;;;;;;;20.57;15.80;;;;;;;20.13;53.76;99776.88;1677736;85;21983;-72
2021/05/16 04:49:19;;;;;;;19.52;14.87;;;;;;;20.38;53.35;99772.98;1677103;85;21123;-71
2021/05/16 04:51:46;;;;;;;18.87;14.28;;;;;;;20.63;52.50;99772.30;1670168;85;21146;-70
2021/05/16 04:54:13;;;;;;;16.57;12.47;;;;;;;20.91;51.68;99753.39;1660533;85;21146;-73
2021/05/16 04:56:40;;;;;;;13.93;10.40;;;;;;;21.16;51.36;99759.68;1668097;85;21145;-74
2021/05/16 04:59:08;;;;;;;17.85;12.78;;;;;;;21.37;51.07;99757.41;1667285;85;22223;-73
2021/05/16 05:01:40;;;;;;;15.85;11.68;;;;;;;21.68;50.52;99749.39;1661565;84;21139;-71
2021/05/16 05:04:07;;;;;;;;;;;;;;;22.06;49.23;99750.42;1639431;87;21400;-70
2021/05/16 05:06:33;;;;;;;21.10;11.65;;;;;;;22.43;48.51;99752.44;1664030;85;20280;-71
2021/05/16 05:09:05;;;;;;;18.40;10.82;;;;;;;22.72;47.58;99749.73;1663071;85;21430;-73
2021/05/16 05:11:34;;;;;;;13.20;9.70;;;;;;;22.94;46.28;99743.19;1667200;85;21104;-72
2021/05/16 05:14:01;;;;;;;14.87;9.03;;;;;;;23.06;45.79;99736.67;1670965;85;21118;-72
2021/05/16 05:16:29;;;;;;;10.95;9.08;;;;;;;23.23;45.26;99738.57;1670928;85;21089;-74
2021/05/16 05:18:56;;;;;;;12.25;8.78;;;;;;;23.59;44.73;99740.03;1670252;85;21111;-71
2021/05/16 05:21:23;;;;;;;9.05;8.13;;;;;;;23.91;42.85;99741.44;1639886;87;21162;-73
2021/05/16 05:23:50;;;;;;;8.33;7.33;;;;;;;24.16;42.87;99749.25;1670262;85;21655;-73
2021/05/16 05:26:17;;;;;;;12.78;7.28;;;;;;;24.49;41.55;99739.64;1615714;85;21107;-72
2021/05/16 05:28:44;;;;;;;10.60;7.85;;;;;;;24.65;40.14;99738.92;1679276;85;21106;-71
2021/05/16 05:31:11;;;;;;;10.75;7.87;;;;;;;24.65;40.82;99733.54;1679102;85;21249;-74
2021/05/16 05:33:39;;;;;;;15.43;8.15;;;;;;;24.78;40.77;99737.65;1670403;85;21272;-72
2021/05/16 05:36:06;;;;;;;11.68;7.92;;;;;;;24.81;40.99;99740.89;1670339;85;21126;-73
2021/05/16 05:38:38;;;;;;;11.38;7.65;;;;;;;24.89;40.67;99740.09;1670994;85;21129;-76
2021/05/16 05:41:05;;;;;;;8.65;7.10;;;;;;;25.02;40.54;99738.33;1657878;85;21278;-72
2021/05/16 05:43:35;;;;;;;10.38;8.10;;;;;;;25.21;40.11;99734.07;1651254;85;21978;-72
2021/05/16 05:46:02;;;;;;;9.60;7.50;;;;;;;25.36;38.85;99732.14;1670301;84;21241;-75
2021/05/16 05:48:28;;;;;;;9.83;7.50;;;;;;;25.14;39.10;99732.99;1629448;86;21827;-73
2021/05/16 05:50:57;;;;;;;12.23;7.45;;;;;;;24.98;39.97;99729.70;1634849;87;21693;-73
2021/05/16 05:53:25;;;;;;;9.38;6.45;;;;;;;25.19;40.18;99729.84;1641265;87;21110;-76
2021/05/16 05:55:52;;;;;;;9.75;6.78;;;;;;;25.41;39.21;99736.53;1659181;85;21161;-72
2021/05/16 05:58:19;;;;;;;8.63;6.87;;;;;;;25.54;38.69;99727.49;1650268;85;21112;-75
2021/05/16 06:00:45;;;;;;;9.65;6.78;;;;;;;25.58;38.33;99723.44;1635153;85;21174;-72
2021/05/16 06:03:12;;;;;;;9.18;7.15;;;;;;;25.79;37.99;99727.55;1643173;86;21166;-72
2021/05/16 06:05:39;;;;;;;7.15;6.42;;;;;;;25.80;37.05;99725.20;1642721;87;21105;-73
2021/05/16 06:08:06;;;;;;;6.50;5.12;;;;;;;25.61;38.13;99724.48;1645922;86;21084;-72
2021/05/16 06:10:33;;;;;;;10.18;6.58;;;;;;;25.69;37.20;99729.05;1654257;86;21779;-75
2021/05/16 06:13:00;;;;;;;10.50;6.55;;;;;;;25.84;36.98;99731.45;1652976;86;21585;-74
2021/05/16 06:15:30;;;;;;;;;;;;;;;25.99;36.23;99727.63;1647784;86;21253;-75
2021/05/16 06:18:01;;;;;;;11.28;7.87;;;;;;;25.73;36.99;99735.30;1648972;86;20267;-73
2021/05/16 06:20:29;;;;;;;10.35;5.55;;;;;;;25.38;37.37;99739.56;1654986;86;21060;-73
2021/05/16 06:22:59;;;;;;;8.83;4.90;;;;;;;25.12;37.20;99737.70;1652698;85;21127;-74
2021/05/16 06:25:25;;;;;;;8.15;5.62;;;;;;;25.25;36.20;99738.14;1654685;86;21135;-72
2021/05/16 06:27:52;;;;;;;9.63;6.40;;;;;;;25.36;36.18;99741.58;1647919;84;21175;-72
2021/05/16 06:30:21;;;;;;;7.72;5.95;;;;;;;25.63;36.57;99738.64;1642284;86;21125;-73
2021/05/16 06:32:48;;;;;;;9.48;6.70;;;;;;;25.89;36.63;99736.38;1642497;86;21091;-75
2021/05/16 06:35:15;;;;;;;8.33;6.83;;;;;;;26.24;35.92;99738.45;1641835;87;21173;-75
2021/05/16 06:37:43;;;;;;;8.95;6.85;;;;;;;26.62;35.39;99732.06;1654066;86;21677;-75
2021/05/16 06:40:13;;;;;;;9.08;6.53;;;;;;;26.77;34.51;99735.25;1653997;86;21374;-75
2021/05/16 06:42:43;;;;;;;8.25;5.55;;;;;;;26.69;34.68;99737.14;1650375;84;21100;-75
2021/05/16 06:45:11;;;;;;;;;;;;;;;26.63;34.64;99733.77;1668177;86;21238;-76
2021/05/16 06:47:38;;;;;;;7.00;5.70;;;;;;;26.83;34.30;99732.39;1663270;84;21123;-74
2021/05/16 06:50:07;;;;;;;8.65;6.33;;;;;;;26.81;34.01;99730.36;1665390;84;21100;-75
2021/05/16 06:52:35;;;;;;;8.70;6.05;;;;;;;26.87;34.09;99729.69;1662643;84;21079;-76
2021/05/16 06:55:03;;;;;;;7.37;5.03;;;;;;;26.95;33.49;99732.36;1594366;86;42240;-75
2021/05/16 06:57:31;;;;;;;7.08;4.97;;;;;;;26.95;33.75;99723.41;1595035;87;21199;-73
2021/05/16 06:59:58;;;;;;;7.85;5.70;;;;;;;26.99;33.53;99726.95;1604996;89;21338;-76
2021/05/16 07:02:26;;;;;;;10.03;6.20;;;;;;;26.94;33.93;99736.09;1610181;88;21221;-76
2021/05/16 07:04:53;;;;;;;7.55;5.40;;;;;;;26.84;34.22;99736.77;1611455;89;21207;-74
2021/05/16 07:07:21;;;;;;;9.05;5.60;;;;;;;26.82;34.26;99732.55;1611084;89;21478;-76
2021/05/16 07:09:48;;;;;;;6.62;4.60;;;;;;;27.05;34.14;99728.61;1611746;89;21631;-76
2021/05/16 07:12:15;;;;;;;8.98;5.87;;;;;;;27.32;32.91;99730.92;1610619;89;21221;-74
2021/05/16 07:14:44;;;;;;;7.65;6.03;;;;;;;27.24;33.34;99729.62;1610443;89;21097;-75
2021/05/16 07:17:11;;;;;;;6.37;5.42;;;;;;;26.70;34.61;99736.12;1610926;89;21612;-75
2021/05/16 07:19:38;;;;;;;6.33;5.55;;;;;;;26.50;35.01;99735.10;1640116;87;21120;-75
2021/05/16 07:22:05;;;;;;;6.60;5.05;;;;;;;26.41;34.17;99736.12;1640747;87;21159;-75
2021/05/16 07:24:33;;;;;;;5.72;4.90;;;;;;;26.43;34.22;99739.46;1640201;87;21149;-77
2021/05/16 07:27:01;;;;;;;7.97;5.20;;;;;;;26.71;34.28;99735.09;1643237;85;21151;-74
2021/05/16 07:29:28;;;;;;;6.72;5.45;;;;;;;27.24;33.66;99732.80;1642415;85;21121;-74
2021/05/16 07:31:54;;;;;;;11.22;5.62;;;;;;;27.61;33.09;99729.46;1642780;85;21687;-75
2021/05/16 07:34:21;;;;;;;6.80;4.20;;;;;;;27.89;33.22;99739.83;1649883;85;21631;-73
2021/05/16 07:36:50;;;;;;;6.47;5.33;;;;;;;27.98;32.29;99736.04;1649872;85;21137;-74
2021/05/16 07:39:17;;;;;;;6.83;5.45;;;;;;;27.73;32.72;99740.20;1656853;84;21753;-74
2021/05/16 07:41:43;;;;;;;7.33;5.28;;;;;;;27.34;33.47;99742.41;1645899;85;21096;-74
2021/05/16 07:44:10;;;;;;;8.43;5.25;;;;;;;27.23;33.57;99746.84;1641817;85;21101;-75
2021/05/16 07:46:37;;;;;;;6.65;4.10;;;;;;;27.19;33.73;99745.45;1640829;87;21065;-75
2021/05/16 07:49:05;;;;;;;6.83;4.25;;;;;;;27.33;33.25;99746.14;1646566;85;21118;-75
2021/05/16 07:51:32;;;;;;;4.50;4.00;;;;;;;27.47;32.56;99735.59;1651801;85;21150;-74
2021/05/16 07:53:59;;;;;;;5.20;4.10;;;;;;;27.44;32.93;99744.06;1649521;84;23543;-74
2021/05/16 07:56:26;;;;;;;6.12;4.30;;;;;;;27.56;33.07;99739.45;1674437;84;21814;-74
2021/05/16 07:58:54;;;;;;;5.33;3.92;;;;;;;27.40;33.09;99734.09;1661404;84;21166;-74
2021/05/16 08:01:21;;;;;;;5.33;3.92;;;;;;;27.03;33.70;99750.40;1665026;84;21167;-74
2021/05/16 08:03:48;;;;;;;6.30;4.40;;;;;;;26.76;33.97;99751.66;1661051;84;21779;-75
2021/05/16 08:06:16;;;;;;;4.83;3.80;;;;;;;26.46;34.12;99759.39;1663235;86;21075;-76
2021/05/16 08:08:44;;;;;;;5.42;4.05;;;;;;;26.42;33.71;99749.94;1663255;86;21062;-74
2021/05/16 08:11:11;;;;;;;3.52;3.10;;;;;;;26.77;33.59;99737.95;1663879;84;21130;-74
2021/05/16 08:13:38;;;;;;;4.45;2.70;;;;;;;27.28;31.55;99729.58;1671936;84;21353;-74
2021/05/16 08:16:06;;;;;;;5.87;3.20;;;;;;;27.52;31.77;99731.88;1671614;84;21060;-75
2021/05/16 08:18:33;;;;;;;5.30;2.80;;;;;;;27.59;30.82;99724.73;1666785;86;21094;-74
2021/05/16 08:21:02;;;;;;;3.15;2.30;;;;;;;27.59;30.89;99720.67;1660140;86;21134;-75
2021/05/16 08:23:29;;;;;;;3.72;2.50;;;;;;;27.71;29.70;99716.54;1648873;84;21087;-73
2021/05/16 08:25:56;;;;;;;4.00;2.47;;;;;;;27.88;30.19;99721.37;1661000;86;21160;-73
2021/05/16 08:28:25;;;;;;;4.00;1.90;;;;;;;28.26;29.26;99719.27;1663292;85;21143;-74
2021/05/16 08:30:53;;;;;;;2.50;1.95;;;;;;;28.16;28.36;99721.70;1664382;84;21118;-74
2021/05/16 08:33:20;;;;;;;7.58;2.70;;;;;;;27.88;28.50;99727.30;1658910;86;21147;-74
2021/05/16 08:35:47;;;;;;;4.12;2.12;;;;;;;27.64;28.99;99734.50;1664568;84;21103;-76
2021/05/16 08:38:15;;;;;;;4.10;2.30;;;;;;;27.54;29.58;99738.78;1663920;86;21747;-73
2021/05/16 08:40:42;;;;;;;5.58;2.25;;;;;;;27.51;29.85;99735.58;1664985;86;21664;-75
2021/05/16 08:43:09;;;;;;;5.20;1.90;;;;;;;27.61;29.65;99737.58;1663726;86;21067;-77
2021/05/16 08:45:37;;;;;;;9.95;2.00;;;;;;;27.88;28.45;99728.65;1648127;85;21162;-72
2021/05/16 08:48:05;;;;;;;4.35;2.30;;;;;;;28.13;28.33;99728.81;1662775;86;21111;-75
2021/05/16 08:50:32;;;;;;;2.65;1.92;;;;;;;28.54;28.03;99724.45;1664461;86;21123;-76
2021/05/16 08:52:59;;;;;;;6.50;2.47;;;;;;;28.84;27.94;99728.58;1658662;84;21669;-74
2021/05/16 08:55:28;;;;;;;3.10;2.12;;;;;;;28.99;28.07;99710.98;1665426;84;21225;-76
2021/05/16 08:57:54;;;;;;;3.15;1.70;;;;;;;29.11;26.17;99705.97;1669426;84;21737;-75
2021/05/16 09:00:26;;;;;;;3.02;1.60;;;;;;;28.92;26.43;99709.53;1669323;85;21424;-75
2021/05/16 09:03:14;;;;;;;3.80;1.50;;;;;;;28.64;26.58;99708.80;1659867;85;21158;-75
2021/05/16 09:05:51;;;;;;;5.17;1.60;;;;;;;28.31;26.30;99700.59;1666394;85;21111;-75
2021/05/16 09:08:24;;;;;;;2.70;1.50;;;;;;;28.56;26.36;99702.09;1667345;85;21062;-76
2021/05/16 09:10:56;;;;;;;4.30;1.32;;;;;;;28.83;25.27;99698.45;1661970;85;21149;-75
2021/05/16 09:13:35;;;;;;;5.35;1.92;;;;;;;28.81;25.77;99696.44;1667891;85;21114;-76
2021/05/16 09:16:15;;;;;;;4.83;1.80;;;;;;;28.58;26.43;99697.34;1666797;85;21949;-73
2021/05/16 09:18:54;;;;;;;4.65;1.50;;;;;;;28.65;26.03;99682.02;1671283;84;21118;-74
2021/05/16 09:21:34;;;;;;;3.17;1.47;;;;;;;29.02;24.80;99678.91;1670039;85;21154;-75
2021/05/16 09:24:09;;;;;;;2.35;1.30;;;;;;;29.02;24.80;99678.91;1666361;85;21551;-73
2021/05/16 09:26:56;;;;;;;1.67;1.25;;;;;;;29.06;24.80;99678.03;1670793;85;21134;-75
2021/05/16 09:29:33;;;;;;;4.62;1.82;;;;;;;29.02;24.61;99677.55;1669216;84;21158;-74
2021/05/16 09:32:01;;;;;;;2.20;1.52;;;;;;;28.86;24.82;99680.45;1669724;85;21146;-76
2021/05/16 09:34:29;;;;;;;2.65;1.35;;;;;;;28.60;25.09;99673.62;1671086;84;21090;-72
2021/05/16 09:36:56;;;;;;;2.00;1.30;;;;;;;28.37;25.83;99672.80;1670284;85;21633;-74
2021/05/16 09:39:26;;;;;;;3.83;1.22;;;;;;;28.40;25.83;99665.66;1670770;85;21134;-74
2021/05/16 09:42:17;;;;;;;1.72;1.27;;;;;;;28.56;25.29;99670.94;1662105;84;21777;-74
2021/05/16 09:44:50;;;;;;;5.85;1.40;;;;;;;28.59;25.67;99667.85;1661636;86;21123;-74
2021/05/16 09:47:26;;;;;;;2.62;1.70;;;;;;;28.69;25.02;99668.97;1662094;86;21147;-75
2021/05/16 09:50:01;;;;;;;6.95;1.80;;;;;;;28.75;25.35;99673.62;1662725;86;21131;-74
2021/05/16 09:52:34;;;;;;;5.70;1.70;;;;;;;28.63;26.11;99674.59;1662978;86;21084;-75
2021/05/16 09:55:08;;;;;;;5.47;1.70;;;;;;;28.53;26.24;99667.26;1660406;85;40409;-73
2021/05/16 09:57:41;;;;;;;3.50;1.55;;;;;;;28.70;25.65;99670.63;1662462;86;21143;-76
2021/05/16 10:00:11;;;;;;;4.50;1.50;;;;;;;28.81;25.49;99667.47;1662803;86;21704;-74
2021/05/16 10:02:38;;;;;;;4.67;1.57;;;;;;;29.10;25.37;99673.92;1661864;84;21119;-74
2021/05/16 10:05:08;;;;;;;3.83;1.55;;;;;;;29.32;25.47;99669.95;1662244;85;22248;-74
2021/05/16 10:07:35;;;;;;;2.60;1.60;;;;;;;29.27;24.88;99673.23;1663059;86;21666;-75
2021/05/16 10:10:02;;;;;;;3.47;1.57;;;;;;;29.32;24.97;99674.85;1662064;86;21104;-72
2021/05/16 10:12:29;;;;;;;4.83;1.42;;;;;;;29.35;25.75;99671.75;1662414;85;21075;-74
2021/05/16 10:15:05;;;;;;;2.37;1.50;;;;;;;29.28;25.08;99668.12;1631497;87;21144;-75
2021/05/16 10:17:36;;;;;;;5.65;1.30;;;;;;;29.47;25.09;99658.53;1619672;88;21705;-74
2021/05/16 10:20:11;;;;;;;4.37;1.50;;;;;;;29.61;24.63;99654.09;1625008;88;21674;-74
2021/05/16 10:22:41;;;;;;;2.58;1.40;;;;;;;29.48;24.43;99650.22;1659867;84;21168;-74
2021/05/16 10:25:09;;;;;;;3.65;1.50;;;;;;;29.36;24.36;99647.68;1652520;85;21083;-74
2021/05/16 10:27:43;;;;;;;2.80;1.30;;;;;;;29.31;24.53;99648.77;1602795;86;21269;-77
2021/05/16 10:30:15;;;;;;;2.08;1.20;;;;;;;29.44;24.26;99644.84;1662506;85;21087;-74
2021/05/16 10:32:51;;;;;;;1.80;1.30;;;;;;;29.84;24.74;99638.53;1655971;85;21184;-75
2021/05/16 10:35:19;;;;;;;4.67;1.80;;;;;;;30.19;23.49;99629.13;1661170;85;21179;-75
2021/05/16 10:37:55;;;;;;;4.25;1.30;;;;;;;30.17;24.58;99621.69;1661399;84;21215;-75
2021/05/16 10:40:36;;;;;;;3.37;1.40;;;;;;;30.23;23.94;99624.98;1662257;85;21140;-75
2021/05/16 10:43:04;;;;;;;;;;;;;;;30.46;23.74;99635.64;1651192;84;21175;-75
2021/05/16 10:45:39;;;;;;;1.42;1.05;;;;;;;30.33;23.11;99638.78;1641254;87;21899;-76
2021/05/16 10:48:17;;;;;;;6.33;1.25;;;;;;;30.04;23.57;99629.72;1662605;86;21163;-74
2021/05/16 10:50:58;;;;;;;2.20;1.25;;;;;;;30.19;23.77;99627.77;1649941;85;21697;-73
2021/05/16 10:53:35;;;;;;;2.65;1.00;;;;;;;30.45;23.22;99628.52;1634420;87;21131;-74
2021/05/16 10:56:10;;;;;;;2.92;1.17;;;;;;;30.82;23.02;99621.53;1634532;87;21131;-74
2021/05/16 10:58:42;;;;;;;3.12;1.60;;;;;;;30.67;22.30;99618.42;1648883;84;21127;-75
2021/05/16 11:01:30;;;;;;;4.15;1.17;;;;;;;30.60;23.48;99608.04;1661674;85;21682;-75
2021/05/16 11:04:00;;;;;;;1.85;1.10;;;;;;;30.74;23.34;99598.91;1650983;84;21140;-75
2021/05/16 11:06:42;;;;;;;1.55;0.80;;;;;;;30.74;22.57;99608.42;1611485;88;21720;-73
2021/05/16 11:09:14;;;;;;;0.80;0.80;;;;;;;30.37;22.61;99602.01;1649176;86;21117;-74
2021/05/16 11:11:49;;;;;;;1.80;1.00;;;;;;;29.94;23.05;99599.36;1649277;86;21144;-73
2021/05/16 11:14:28;;;;;;;1.55;0.80;;;;;;;29.89;23.17;99587.21;1649295;86;21096;-73
2021/05/16 11:17:04;;;;;;;2.05;1.55;;;;;;;29.66;23.07;99592.81;1649899;86;21636;-73
2021/05/16 11:19:35;;;;;;;2.40;1.15;;;;;;;29.59;24.15;99582.94;1648195;86;21108;-72
2021/05/16 11:22:30;;;;;;;3.58;1.40;;;;;;;29.93;23.78;99574.59;1648979;86;21605;-75
2021/05/16 11:24:50;;;;;;;1.98;1.15;;;;;;;30.00;23.66;99569.56;1629793;86;22134;-73
2021/05/16 11:27:30;;;;;;;3.52;1.10;;;;;;;30.04;23.21;99572.70;1634143;87;21637;-72
2021/05/16 11:30:04;;;;;;;2.90;1.10;;;;;;;29.94;23.67;99567.63;1634456;87;21767;-71
2021/05/16 11:32:30;;;;;;;2.70;1.00;;;;;;;29.68;23.14;99578.56;1632256;87;21799;-73
2021/05/16 11:35:21;;;;;;;1.42;1.02;;;;;;;29.28;23.46;99578.62;1634025;87;21151;-72
2021/05/16 11:37:52;;;;;;;2.65;1.07;;;;;;;29.16;24.16;99569.33;1632972;86;21113;-73
2021/05/16 11:40:32;;;;;;;1.22;0.90;;;;;;;29.27;24.73;99561.53;1647719;85;21113;-74
2021/05/16 11:43:07;;;;;;;1.67;1.03;;;;;;;29.51;23.78;99558.11;1613930;87;21735;-75